sensor_id;sensor_type;location;lat;lon;timestamp;pressure;altitude;pressure_sealevel;temperature;humidity
59443;BME280;45247;47.466;19.004;2023-08-24T00:01:06;99966.38;;;23.17;100.00
59443;BME280;45247;47.466;19.004;2023-08-24T00:03:35;99961.31;;;23.14;100.00
59443;BME280;45247;47.466;19.004;2023-08-24T00:06:04;99955.94;;;23.06;100.00
59443;BME280;45247;47.466;19.004;2023-08-24T00:08:32;99968.06;;;23.10;100.00
59443;BME280;45247;47.466;19.004;2023-08-24T00:11:01;99966.53;;;23.07;100.00
59443;BME280;45247;47.466;19.004;2023-08-24T00:13:29;99965.38;;;23.02;100.00
59443;BME280;45247;47.466;19.004;2023-08-24T00:15:58;99965.06;;;22.96;100.00
59443;BME280;45247;47.466;19.004;2023-08-24T00:18:28;99969.75;;;22.94;100.00
59443;BME280;45247;47.466;19.004;2023-08-24T00:20:56;99953.97;;;22.91;100.00
59443;BME280;45247;47.466;19.004;2023-08-24T00:23:25;99959.63;;;22.88;100.00
59443;BME280;45247;47.466;19.004;2023-08-24T00:25:53;99960.28;;;22.82;100.00
59443;BME280;45247;47.466;19.004;2023-08-24T00:28:21;99966.03;;;22.87;100.00
59443;BME280;45247;47.466;19.004;2023-08-24T00:30:49;99962.31;;;22.88;100.00
59443;BME280;45247;47.466;19.004;2023-08-24T00:33:17;99960.28;;;22.82;100.00
59443;BME280;45247;47.466;19.004;2023-08-24T00:35:47;99968.72;;;22.79;100.00
59443;BME280;45247;47.466;19.004;2023-08-24T00:38:15;99966.03;;;22.79;100.00
59443;BME280;45247;47.466;19.004;2023-08-24T00:40:44;99968.03;;;22.77;100.00
59443;BME280;45247;47.466;19.004;2023-08-24T00:43:13;99970.06;;;22.75;100.00
59443;BME280;45247;47.466;19.004;2023-08-24T00:45:41;99970.06;;;22.75;100.00
59443;BME280;45247;47.466;19.004;2023-08-24T00:48:10;99961.66;;;22.70;100.00
59443;BME280;45247;47.466;19.004;2023-08-24T00:50:38;99961.66;;;22.62;100.00
59443;BME280;45247;47.466;19.004;2023-08-24T00:53:08;99966.34;;;22.60;100.00
59443;BME280;45247;47.466;19.004;2023-08-24T00:55:36;99971.22;;;22.56;100.00
59443;BME280;45247;47.466;19.004;2023-08-24T00:58:05;99979.78;;;22.52;100.00
59443;BME280;45247;47.466;19.004;2023-08-24T01:00:34;99976.13;;;22.53;100.00
59443;BME280;45247;47.466;19.004;2023-08-24T01:03:03;99970.75;;;22.53;100.00
59443;BME280;45247;47.466;19.004;2023-08-24T01:05:32;99977.94;;;22.52;100.00
59443;BME280;45247;47.466;19.004;2023-08-24T01:08:00;99982.66;;;22.50;100.00
59443;BME280;45247;47.466;19.004;2023-08-24T01:10:37;99980.63;;;22.52;100.00
59443;BME280;45247;47.466;19.004;2023-08-24T01:13:09;99975.75;;;22.47;100.00
59443;BME280;45247;47.466;19.004;2023-08-24T01:15:40;99966.50;;;22.42;100.00
59443;BME280;45247;47.466;19.004;2023-08-24T01:18:13;99968.69;;;22.38;100.00
59443;BME280;45247;47.466;19.004;2023-08-24T01:20:42;99969.69;;;22.37;100.00
59443;BME280;45247;47.466;19.004;2023-08-24T01:23:23;99973.41;;;22.36;100.00
59443;BME280;45247;47.466;19.004;2023-08-24T01:26:04;99967.34;;;22.34;100.00
59443;BME280;45247;47.466;19.004;2023-08-24T01:28:33;99969.69;;;22.29;100.00
59443;BME280;45247;47.466;19.004;2023-08-24T01:31:03;99970.00;;;22.26;100.00
59443;BME280;45247;47.466;19.004;2023-08-24T01:33:32;99968.66;;;22.22;100.00
59443;BME280;45247;47.466;19.004;2023-08-24T01:36:00;99965.94;;;22.14;100.00
59443;BME280;45247;47.466;19.004;2023-08-24T01:38:28;99963.06;;;22.07;100.00
59443;BME280;45247;47.466;19.004;2023-08-24T01:41:06;99960.84;;;22.03;100.00
59443;BME280;45247;47.466;19.004;2023-08-24T01:43:37;99971.44;;;22.04;100.00
59443;BME280;45247;47.466;19.004;2023-08-24T01:46:11;99955.63;;;22.01;100.00
59443;BME280;45247;47.466;19.004;2023-08-24T01:48:43;99965.72;;;21.99;100.00
59443;BME280;45247;47.466;19.004;2023-08-24T01:51:12;99963.66;;;21.85;100.00
59443;BME280;45247;47.466;19.004;2023-08-24T01:53:41;99958.78;;;21.80;100.00
59443;BME280;45247;47.466;19.004;2023-08-24T01:56:12;99964.28;;;21.79;100.00
59443;BME280;45247;47.466;19.004;2023-08-24T01:58:40;99961.94;;;21.75;100.00
59443;BME280;45247;47.466;19.004;2023-08-24T02:01:09;99965.47;;;21.76;100.00
59443;BME280;45247;47.466;19.004;2023-08-24T02:03:39;99970.50;;;21.79;100.00
59443;BME280;45247;47.466;19.004;2023-08-24T02:06:08;99969.53;;;21.80;100.00
59443;BME280;45247;47.466;19.004;2023-08-24T02:08:36;99963.97;;;21.82;100.00
59443;BME280;45247;47.466;19.004;2023-08-24T02:11:04;99964.50;;;21.85;100.00
59443;BME280;45247;47.466;19.004;2023-08-24T02:13:33;99965.16;;;21.87;100.00
59443;BME280;45247;47.466;19.004;2023-08-24T02:16:02;99956.97;;;21.89;100.00
59443;BME280;45247;47.466;19.004;2023-08-24T02:18:31;99955.13;;;21.89;100.00
59443;BME280;45247;47.466;19.004;2023-08-24T02:21:00;99959.28;;;21.92;100.00
59443;BME280;45247;47.466;19.004;2023-08-24T02:23:34;99958.47;;;21.91;100.00
59443;BME280;45247;47.466;19.004;2023-08-24T02:26:02;99955.78;;;21.91;100.00
59443;BME280;45247;47.466;19.004;2023-08-24T02:28:30;99953.75;;;21.85;100.00
59443;BME280;45247;47.466;19.004;2023-08-24T02:31:01;99945.69;;;21.85;100.00
59443;BME280;45247;47.466;19.004;2023-08-24T02:33:30;99953.59;;;21.87;100.00
59443;BME280;45247;47.466;19.004;2023-08-24T02:35:58;99960.13;;;21.84;100.00
59443;BME280;45247;47.466;19.004;2023-08-24T02:38:26;99962.44;;;21.79;100.00
59443;BME280;45247;47.466;19.004;2023-08-24T02:41:02;99952.69;;;21.70;100.00
59443;BME280;45247;47.466;19.004;2023-08-24T02:43:30;99953.34;;;21.64;100.00
59443;BME280;45247;47.466;19.004;2023-08-24T02:46:01;99954.97;;;21.57;100.00
59443;BME280;45247;47.466;19.004;2023-08-24T02:48:31;99956.78;;;21.48;100.00
59443;BME280;45247;47.466;19.004;2023-08-24T02:51:00;99958.22;;;21.34;100.00
59443;BME280;45247;47.466;19.004;2023-08-24T02:53:29;99959.44;;;21.22;100.00
59443;BME280;45247;47.466;19.004;2023-08-24T02:55:58;99968.16;;;21.24;100.00
59443;BME280;45247;47.466;19.004;2023-08-24T02:58:26;99962.44;;;21.19;100.00
59443;BME280;45247;47.466;19.004;2023-08-24T03:00:54;99957.34;;;21.08;100.00
59443;BME280;45247;47.466;19.004;2023-08-24T03:03:24;99953.31;;;21.04;100.00
59443;BME280;45247;47.466;19.004;2023-08-24T03:05:54;99959.03;;;21.09;100.00
59443;BME280;45247;47.466;19.004;2023-08-24T03:08:23;99950.97;;;21.09;100.00
59443;BME280;45247;47.466;19.004;2023-08-24T03:10:52;99959.88;;;21.09;100.00
59443;BME280;45247;47.466;19.004;2023-08-24T03:13:20;99951.22;;;20.97;100.00
59443;BME280;45247;47.466;19.004;2023-08-24T03:15:49;99957.59;;;20.96;100.00
59443;BME280;45247;47.466;19.004;2023-08-24T03:18:17;99948.88;;;20.94;100.00
59443;BME280;45247;47.466;19.004;2023-08-24T03:20:48;99948.81;;;20.86;100.00
59443;BME280;45247;47.466;19.004;2023-08-24T03:23:16;99958.84;;;20.84;100.00
59443;BME280;45247;47.466;19.004;2023-08-24T03:25:45;99956.47;;;20.81;100.00
59443;BME280;45247;47.466;19.004;2023-08-24T03:28:13;99946.06;;;20.78;100.00
59443;BME280;45247;47.466;19.004;2023-08-24T03:30:46;99948.88;;;20.76;100.00
59443;BME280;45247;47.466;19.004;2023-08-24T03:33:15;99955.44;;;20.74;100.00
59443;BME280;45247;47.466;19.004;2023-08-24T03:35:43;99958.09;;;20.74;100.00
59443;BME280;45247;47.466;19.004;2023-08-24T03:38:13;99955.72;;;20.71;100.00
59443;BME280;45247;47.466;19.004;2023-08-24T03:40:42;99958.56;;;20.69;100.00
59443;BME280;45247;47.466;19.004;2023-08-24T03:43:11;99960.78;;;20.74;100.00
59443;BME280;45247;47.466;19.004;2023-08-24T03:45:39;99962.16;;;20.78;100.00
59443;BME280;45247;47.466;19.004;2023-08-24T03:48:07;99969.50;;;20.76;100.00
59443;BME280;45247;47.466;19.004;2023-08-24T03:50:35;99966.34;;;20.81;100.00
59443;BME280;45247;47.466;19.004;2023-08-24T03:53:03;99967.91;;;20.83;100.00
59443;BME280;45247;47.466;19.004;2023-08-24T03:55:33;99969.75;;;20.83;100.00
59443;BME280;45247;47.466;19.004;2023-08-24T03:58:01;99976.25;;;20.80;100.00
59443;BME280;45247;47.466;19.004;2023-08-24T04:00:30;99970.22;;;20.78;100.00
59443;BME280;45247;47.466;19.004;2023-08-24T04:02:58;99965.06;;;20.67;100.00
59443;BME280;45247;47.466;19.004;2023-08-24T04:05:27;99965.06;;;20.67;100.00
59443;BME280;45247;47.466;19.004;2023-08-24T04:07:55;99972.28;;;20.66;100.00
59443;BME280;45247;47.466;19.004;2023-08-24T04:10:23;99972.28;;;20.66;100.00
59443;BME280;45247;47.466;19.004;2023-08-24T04:12:53;99967.28;;;20.71;100.00
59443;BME280;45247;47.466;19.004;2023-08-24T04:15:21;99968.53;;;20.77;100.00
59443;BME280;45247;47.466;19.004;2023-08-24T04:17:49;99970.78;;;21.08;100.00
59443;BME280;45247;47.466;19.004;2023-08-24T04:20:18;99978.41;;;21.46;100.00
59443;BME280;45247;47.466;19.004;2023-08-24T04:22:48;99977.38;;;21.39;100.00
59443;BME280;45247;47.466;19.004;2023-08-24T04:25:16;99971.00;;;21.40;100.00
59443;BME280;45247;47.466;19.004;2023-08-24T04:27:44;99975.22;;;21.43;100.00
59443;BME280;45247;47.466;19.004;2023-08-24T04:30:13;99979.09;;;22.33;100.00
59443;BME280;45247;47.466;19.004;2023-08-24T04:32:41;99982.47;;;23.25;100.00
59443;BME280;45247;47.466;19.004;2023-08-24T04:35:10;99986.25;;;24.11;100.00
59443;BME280;45247;47.466;19.004;2023-08-24T04:37:38;99985.81;;;24.84;100.00
59443;BME280;45247;47.466;19.004;2023-08-24T04:40:07;99987.97;;;25.71;100.00
59443;BME280;45247;47.466;19.004;2023-08-24T04:42:35;99989.63;;;26.53;100.00
59443;BME280;45247;47.466;19.004;2023-08-24T04:45:04;99992.84;;;27.34;92.32
59443;BME280;45247;47.466;19.004;2023-08-24T04:47:33;99981.16;;;28.09;84.78
59443;BME280;45247;47.466;19.004;2023-08-24T04:50:02;99993.06;;;28.89;78.83
59443;BME280;45247;47.466;19.004;2023-08-24T04:52:30;99994.69;;;29.70;72.78
59443;BME280;45247;47.466;19.004;2023-08-24T04:54:59;99989.78;;;30.43;67.54
59443;BME280;45247;47.466;19.004;2023-08-24T04:57:27;99996.34;;;30.99;66.10
59443;BME280;45247;47.466;19.004;2023-08-24T04:59:55;100002.13;;;31.96;60.92
59443;BME280;45247;47.466;19.004;2023-08-24T05:02:23;99997.19;;;32.05;59.78
59443;BME280;45247;47.466;19.004;2023-08-24T05:04:53;99999.16;;;32.76;56.92
59443;BME280;45247;47.466;19.004;2023-08-24T05:07:21;100001.94;;;33.23;55.78
59443;BME280;45247;47.466;19.004;2023-08-24T05:09:50;99999.25;;;33.58;53.47
59443;BME280;45247;47.466;19.004;2023-08-24T05:12:18;100000.25;;;34.33;50.96
59443;BME280;45247;47.466;19.004;2023-08-24T05:14:46;100006.13;;;34.53;50.70
59443;BME280;45247;47.466;19.004;2023-08-24T05:17:14;100011.97;;;34.57;50.13
59443;BME280;45247;47.466;19.004;2023-08-24T05:19:42;100003.56;;;35.09;50.10
59443;BME280;45247;47.466;19.004;2023-08-24T05:22:12;100011.22;;;35.46;48.13
59443;BME280;45247;47.466;19.004;2023-08-24T05:24:40;100007.75;;;35.50;48.07
59443;BME280;45247;47.466;19.004;2023-08-24T05:27:08;100013.50;;;35.15;48.91
59443;BME280;45247;47.466;19.004;2023-08-24T05:29:36;100014.63;;;34.69;50.40
59443;BME280;45247;47.466;19.004;2023-08-24T05:32:04;100011.22;;;35.62;48.16
59443;BME280;45247;47.466;19.004;2023-08-24T05:34:33;100011.25;;;36.28;46.93
59443;BME280;45247;47.466;19.004;2023-08-24T05:37:01;100021.59;;;36.70;46.29
59443;BME280;45247;47.466;19.004;2023-08-24T05:39:30;100026.63;;;37.43;44.29
59443;BME280;45247;47.466;19.004;2023-08-24T05:41:59;100022.16;;;37.37;44.72
59443;BME280;45247;47.466;19.004;2023-08-24T05:44:27;100025.56;;;37.44;43.59
59443;BME280;45247;47.466;19.004;2023-08-24T05:46:55;100020.66;;;37.56;43.18
59443;BME280;45247;47.466;19.004;2023-08-24T05:49:23;100019.13;;;37.75;42.95
59443;BME280;45247;47.466;19.004;2023-08-24T05:51:52;100021.75;;;37.55;43.54
59443;BME280;45247;47.466;19.004;2023-08-24T05:54:20;100030.09;;;37.65;44.05
59443;BME280;45247;47.466;19.004;2023-08-24T05:56:49;100027.50;;;37.91;42.53
59443;BME280;45247;47.466;19.004;2023-08-24T05:59:17;100033.75;;;36.25;45.12
59443;BME280;45247;47.466;19.004;2023-08-24T06:01:46;100036.78;;;35.29;47.01
59443;BME280;45247;47.466;19.004;2023-08-24T06:04:14;100028.00;;;36.05;46.64
59443;BME280;45247;47.466;19.004;2023-08-24T06:06:42;100027.41;;;35.25;47.42
59443;BME280;45247;47.466;19.004;2023-08-24T06:09:10;100024.47;;;35.15;48.94
59443;BME280;45247;47.466;19.004;2023-08-24T06:11:38;100023.78;;;35.58;47.57
59443;BME280;45247;47.466;19.004;2023-08-24T06:14:08;100021.59;;;35.22;48.18
59443;BME280;45247;47.466;19.004;2023-08-24T06:16:37;100029.03;;;35.43;48.90
59443;BME280;45247;47.466;19.004;2023-08-24T06:19:05;100019.72;;;35.83;47.59
59443;BME280;45247;47.466;19.004;2023-08-24T06:21:33;100024.94;;;36.01;46.73
59443;BME280;45247;47.466;19.004;2023-08-24T06:24:01;100023.53;;;35.99;46.57
59443;BME280;45247;47.466;19.004;2023-08-24T06:26:30;100028.97;;;35.55;46.28
59443;BME280;45247;47.466;19.004;2023-08-24T06:28:58;100024.41;;;35.10;47.99
59443;BME280;45247;47.466;19.004;2023-08-24T06:31:28;100022.09;;;34.56;49.28
59443;BME280;45247;47.466;19.004;2023-08-24T06:33:58;100025.06;;;34.55;49.26
59443;BME280;45247;47.466;19.004;2023-08-24T06:36:26;100022.41;;;34.60;49.89
59443;BME280;45247;47.466;19.004;2023-08-24T06:38:55;100022.88;;;34.28;50.33
59443;BME280;45247;47.466;19.004;2023-08-24T06:41:25;100018.50;;;34.27;50.91
59443;BME280;45247;47.466;19.004;2023-08-24T06:43:53;100021.41;;;34.49;50.29
59443;BME280;45247;47.466;19.004;2023-08-24T06:46:22;100016.28;;;34.53;50.03
59443;BME280;45247;47.466;19.004;2023-08-24T06:48:52;100019.06;;;34.01;51.23
59443;BME280;45247;47.466;19.004;2023-08-24T06:51:20;100016.47;;;33.59;51.78
59443;BME280;45247;47.466;19.004;2023-08-24T06:53:48;100015.09;;;34.08;52.28
59443;BME280;45247;47.466;19.004;2023-08-24T06:56:16;100018.53;;;34.16;52.87
59443;BME280;45247;47.466;19.004;2023-08-24T06:58:47;100021.19;;;33.87;50.88
59443;BME280;45247;47.466;19.004;2023-08-24T07:01:16;100011.38;;;33.62;50.93
59443;BME280;45247;47.466;19.004;2023-08-24T07:03:44;100016.47;;;33.59;50.31
59443;BME280;45247;47.466;19.004;2023-08-24T07:06:13;100015.16;;;33.73;51.90
59443;BME280;45247;47.466;19.004;2023-08-24T07:08:42;100017.38;;;34.00;51.03
59443;BME280;45247;47.466;19.004;2023-08-24T07:11:10;100015.41;;;33.72;51.01
59443;BME280;45247;47.466;19.004;2023-08-24T07:13:40;100020.94;;;34.00;50.12
59443;BME280;45247;47.466;19.004;2023-08-24T07:16:09;100016.44;;;34.06;51.18
59443;BME280;45247;47.466;19.004;2023-08-24T07:18:37;100023.59;;;33.36;50.85
59443;BME280;45247;47.466;19.004;2023-08-24T07:21:05;100011.47;;;33.56;50.99
59443;BME280;45247;47.466;19.004;2023-08-24T07:23:35;100023.25;;;33.68;50.81
59443;BME280;45247;47.466;19.004;2023-08-24T07:26:03;100016.00;;;33.50;51.40
59443;BME280;45247;47.466;19.004;2023-08-24T07:28:32;100013.69;;;33.00;53.49
59443;BME280;45247;47.466;19.004;2023-08-24T07:31:07;100015.84;;;33.10;53.32
59443;BME280;45247;47.466;19.004;2023-08-24T07:33:35;100018.06;;;32.29;54.05
59443;BME280;45247;47.466;19.004;2023-08-24T07:36:04;100018.28;;;32.28;54.63
59443;BME280;45247;47.466;19.004;2023-08-24T07:38:32;100016.03;;;32.55;53.62
59443;BME280;45247;47.466;19.004;2023-08-24T07:41:02;100017.13;;;32.35;53.32
59443;BME280;45247;47.466;19.004;2023-08-24T07:43:30;100019.16;;;32.10;55.27
59443;BME280;45247;47.466;19.004;2023-08-24T07:45:58;100016.84;;;32.44;53.62
59443;BME280;45247;47.466;19.004;2023-08-24T07:48:27;100021.78;;;32.35;53.84
59443;BME280;45247;47.466;19.004;2023-08-24T07:50:55;100022.13;;;32.57;53.57
59443;BME280;45247;47.466;19.004;2023-08-24T07:53:23;100012.25;;;32.26;54.37
59443;BME280;45247;47.466;19.004;2023-08-24T07:55:53;100018.13;;;32.41;53.43
59443;BME280;45247;47.466;19.004;2023-08-24T07:58:22;100020.25;;;32.69;54.40
59443;BME280;45247;47.466;19.004;2023-08-24T08:00:51;100018.53;;;32.86;53.95
59443;BME280;45247;47.466;19.004;2023-08-24T08:03:19;100023.44;;;32.66;53.42
59443;BME280;45247;47.466;19.004;2023-08-24T08:05:48;100015.38;;;32.71;52.31
59443;BME280;45247;47.466;19.004;2023-08-24T08:08:16;100018.59;;;32.68;52.01
59443;BME280;45247;47.466;19.004;2023-08-24T08:10:44;100020.03;;;32.40;53.08
59443;BME280;45247;47.466;19.004;2023-08-24T08:13:12;100027.91;;;32.49;52.90
59443;BME280;45247;47.466;19.004;2023-08-24T08:15:42;100030.31;;;32.57;53.61
59443;BME280;45247;47.466;19.004;2023-08-24T08:18:10;100025.41;;;32.47;52.81
59443;BME280;45247;47.466;19.004;2023-08-24T08:20:39;100025.50;;;32.40;52.29
59443;BME280;45247;47.466;19.004;2023-08-24T08:23:07;100036.41;;;32.40;53.79
59443;BME280;45247;47.466;19.004;2023-08-24T08:25:36;100025.19;;;32.30;53.19
59443;BME280;45247;47.466;19.004;2023-08-24T08:28:04;100031.97;;;32.58;54.72
59443;BME280;45247;47.466;19.004;2023-08-24T08:30:32;100034.53;;;32.83;52.47
59443;BME280;45247;47.466;19.004;2023-08-24T08:33:03;100031.72;;;32.89;52.47
59443;BME280;45247;47.466;19.004;2023-08-24T08:35:31;100034.84;;;32.63;53.18
59443;BME280;45247;47.466;19.004;2023-08-24T08:37:59;100029.38;;;32.63;53.66
59443;BME280;45247;47.466;19.004;2023-08-24T08:40:29;100031.94;;;32.76;53.76
59443;BME280;45247;47.466;19.004;2023-08-24T08:42:58;100030.50;;;32.44;52.30
59443;BME280;45247;47.466;19.004;2023-08-24T08:45:28;100024.63;;;32.10;54.25
59443;BME280;45247;47.466;19.004;2023-08-24T08:47:58;100026.09;;;32.24;55.91
59443;BME280;45247;47.466;19.004;2023-08-24T08:50:29;100020.78;;;32.48;54.88
59443;BME280;45247;47.466;19.004;2023-08-24T08:52:57;100018.94;;;32.60;54.78
59443;BME280;45247;47.466;19.004;2023-08-24T08:55:27;100016.41;;;32.58;53.54
59443;BME280;45247;47.466;19.004;2023-08-24T08:57:58;100014.88;;;32.51;56.08
59443;BME280;45247;47.466;19.004;2023-08-24T09:00:28;100011.59;;;32.72;52.49
59443;BME280;45247;47.466;19.004;2023-08-24T09:02:58;100016.78;;;32.62;55.04
59443;BME280;45247;47.466;19.004;2023-08-24T09:05:28;100014.19;;;32.67;54.96
59443;BME280;45247;47.466;19.004;2023-08-24T09:07:57;100007.09;;;32.78;54.19
59443;BME280;45247;47.466;19.004;2023-08-24T09:10:26;100002.44;;;32.66;53.35
59443;BME280;45247;47.466;19.004;2023-08-24T09:12:54;100006.34;;;32.71;52.96
59443;BME280;45247;47.466;19.004;2023-08-24T09:15:26;100004.41;;;32.89;54.13
59443;BME280;45247;47.466;19.004;2023-08-24T09:17:56;100001.16;;;32.39;52.02
59443;BME280;45247;47.466;19.004;2023-08-24T09:20:28;99998.94;;;31.99;50.26
59443;BME280;45247;47.466;19.004;2023-08-24T09:22:57;100013.97;;;32.20;48.86
59443;BME280;45247;47.466;19.004;2023-08-24T09:25:25;100007.97;;;32.30;49.84
59443;BME280;45247;47.466;19.004;2023-08-24T09:27:57;100007.84;;;31.70;50.23
59443;BME280;45247;47.466;19.004;2023-08-24T09:30:32;100008.06;;;32.23;50.63
59443;BME280;45247;47.466;19.004;2023-08-24T09:33:01;99999.06;;;32.53;49.17
59443;BME280;45247;47.466;19.004;2023-08-24T09:35:34;100001.53;;;32.43;49.83
59443;BME280;45247;47.466;19.004;2023-08-24T09:38:16;99989.69;;;32.49;46.92
59443;BME280;45247;47.466;19.004;2023-08-24T09:40:45;99991.72;;;32.53;47.95
59443;BME280;45247;47.466;19.004;2023-08-24T09:43:15;99988.03;;;32.48;43.89
59443;BME280;45247;47.466;19.004;2023-08-24T09:45:50;99985.31;;;32.29;41.88
59443;BME280;45247;47.466;19.004;2023-08-24T09:48:19;99990.78;;;31.56;43.11
59443;BME280;45247;47.466;19.004;2023-08-24T09:50:50;99993.34;;;31.51;43.12
59443;BME280;45247;47.466;19.004;2023-08-24T09:53:19;99994.00;;;31.89;41.94
59443;BME280;45247;47.466;19.004;2023-08-24T09:55:53;99991.41;;;31.76;42.45
59443;BME280;45247;47.466;19.004;2023-08-24T09:58:22;99993.41;;;31.87;42.33
59443;BME280;45247;47.466;19.004;2023-08-24T10:00:51;99989.75;;;31.75;42.04
59443;BME280;45247;47.466;19.004;2023-08-24T10:03:20;99997.19;;;32.05;42.92
59443;BME280;45247;47.466;19.004;2023-08-24T10:05:53;99981.03;;;32.33;42.62
59443;BME280;45247;47.466;19.004;2023-08-24T10:08:29;100005.97;;;32.07;40.25
59443;BME280;45247;47.466;19.004;2023-08-24T10:10:57;99995.34;;;31.99;40.48
59443;BME280;45247;47.466;19.004;2023-08-24T10:13:36;99990.50;;;31.82;41.07
59443;BME280;45247;47.466;19.004;2023-08-24T10:16:08;99993.56;;;31.92;40.77
59443;BME280;45247;47.466;19.004;2023-08-24T10:18:37;99989.63;;;31.88;41.64
59443;BME280;45247;47.466;19.004;2023-08-24T10:21:07;99981.88;;;32.04;41.45
59443;BME280;45247;47.466;19.004;2023-08-24T10:23:36;99979.59;;;31.82;41.82
59443;BME280;45247;47.466;19.004;2023-08-24T10:26:07;99984.38;;;32.05;42.02
59443;BME280;45247;47.466;19.004;2023-08-24T10:28:36;99985.19;;;32.06;42.69
59443;BME280;45247;47.466;19.004;2023-08-24T10:31:05;99970.41;;;31.77;40.71
59443;BME280;45247;47.466;19.004;2023-08-24T10:33:34;99971.41;;;31.64;41.88
59443;BME280;45247;47.466;19.004;2023-08-24T10:36:04;99965.50;;;31.67;40.55
59443;BME280;45247;47.466;19.004;2023-08-24T10:38:40;99964.75;;;31.97;42.62
59443;BME280;45247;47.466;19.004;2023-08-24T10:41:09;99958.78;;;31.88;40.51
59443;BME280;45247;47.466;19.004;2023-08-24T10:43:48;99959.88;;;31.99;41.00
59443;BME280;45247;47.466;19.004;2023-08-24T10:46:17;99951.34;;;32.25;41.56
59443;BME280;45247;47.466;19.004;2023-08-24T10:48:57;99954.72;;;31.90;40.74
59443;BME280;45247;47.466;19.004;2023-08-24T10:51:26;99959.56;;;31.52;41.76
59443;BME280;45247;47.466;19.004;2023-08-24T10:53:58;99955.03;;;31.64;43.61
59443;BME280;45247;47.466;19.004;2023-08-24T10:56:34;99955.13;;;31.94;41.43
59443;BME280;45247;47.466;19.004;2023-08-24T10:59:13;99955.03;;;32.01;41.86
59443;BME280;45247;47.466;19.004;2023-08-24T11:01:42;99947.31;;;31.79;41.29
59443;BME280;45247;47.466;19.004;2023-08-24T11:04:11;99948.97;;;31.80;41.53
59443;BME280;45247;47.466;19.004;2023-08-24T11:06:53;99955.22;;;31.87;41.04
59443;BME280;45247;47.466;19.004;2023-08-24T11:09:24;99953.91;;;31.90;41.95
59443;BME280;45247;47.466;19.004;2023-08-24T11:11:56;99944.56;;;31.98;42.34
59443;BME280;45247;47.466;19.004;2023-08-24T11:14:25;99948.38;;;31.97;40.74
59443;BME280;45247;47.466;19.004;2023-08-24T11:16:57;99942.53;;;32.23;41.48
59443;BME280;45247;47.466;19.004;2023-08-24T11:19:26;99952.91;;;32.03;41.05
59443;BME280;45247;47.466;19.004;2023-08-24T11:21:54;99943.00;;;31.53;41.43
59443;BME280;45247;47.466;19.004;2023-08-24T11:24:24;99941.69;;;31.56;41.52
59443;BME280;45247;47.466;19.004;2023-08-24T11:26:53;99938.91;;;31.62;42.53
59443;BME280;45247;47.466;19.004;2023-08-24T11:29:21;99947.91;;;31.81;42.65
59443;BME280;45247;47.466;19.004;2023-08-24T11:31:51;99939.75;;;32.00;42.31
59443;BME280;45247;47.466;19.004;2023-08-24T11:34:19;99931.94;;;31.85;42.22
59443;BME280;45247;47.466;19.004;2023-08-24T11:36:49;99944.44;;;31.74;43.09
59443;BME280;45247;47.466;19.004;2023-08-24T11:39:20;99936.97;;;31.81;41.93
59443;BME280;45247;47.466;19.004;2023-08-24T11:42:02;99928.81;;;31.81;42.55
59443;BME280;45247;47.466;19.004;2023-08-24T11:44:44;99922.81;;;31.73;42.60
59443;BME280;45247;47.466;19.004;2023-08-24T11:47:13;99925.16;;;32.06;44.86
59443;BME280;45247;47.466;19.004;2023-08-24T11:49:41;99925.34;;;31.92;42.12
59443;BME280;45247;47.466;19.004;2023-08-24T11:52:09;99924.41;;;31.99;41.52
59443;BME280;45247;47.466;19.004;2023-08-24T11:54:38;99921.47;;;32.00;42.71
59443;BME280;45247;47.466;19.004;2023-08-24T11:57:07;99930.16;;;32.09;40.68
59443;BME280;45247;47.466;19.004;2023-08-24T11:59:37;99922.38;;;31.94;40.59
59443;BME280;45247;47.466;19.004;2023-08-24T12:02:08;99923.19;;;32.13;41.62
59443;BME280;45247;47.466;19.004;2023-08-24T12:04:38;99917.81;;;32.06;41.71
59443;BME280;45247;47.466;19.004;2023-08-24T12:07:09;99914.91;;;32.31;42.49
59443;BME280;45247;47.466;19.004;2023-08-24T12:09:37;99905.97;;;32.43;41.27
59443;BME280;45247;47.466;19.004;2023-08-24T12:12:12;99911.19;;;32.44;41.28
59443;BME280;45247;47.466;19.004;2023-08-24T12:14:40;99906.94;;;32.18;39.83
59443;BME280;45247;47.466;19.004;2023-08-24T12:17:09;99911.72;;;32.34;41.84
59443;BME280;45247;47.466;19.004;2023-08-24T12:19:41;99901.09;;;32.14;41.34
59443;BME280;45247;47.466;19.004;2023-08-24T12:22:13;99895.88;;;32.13;41.62
59443;BME280;45247;47.466;19.004;2023-08-24T12:24:43;99900.28;;;32.14;41.06
59443;BME280;45247;47.466;19.004;2023-08-24T12:27:20;99894.94;;;32.19;40.40
59443;BME280;45247;47.466;19.004;2023-08-24T12:29:49;99896.38;;;32.22;40.52
59443;BME280;45247;47.466;19.004;2023-08-24T12:32:18;99892.09;;;32.56;41.55
59443;BME280;45247;47.466;19.004;2023-08-24T12:34:49;99894.84;;;32.26;38.64
59443;BME280;45247;47.466;19.004;2023-08-24T12:37:18;99896.28;;;32.28;39.53
59443;BME280;45247;47.466;19.004;2023-08-24T12:39:46;99888.19;;;32.22;39.07
59443;BME280;45247;47.466;19.004;2023-08-24T12:42:15;99893.63;;;32.10;41.34
59443;BME280;45247;47.466;19.004;2023-08-24T12:44:45;99889.47;;;31.40;40.29
59443;BME280;45247;47.466;19.004;2023-08-24T12:47:13;99871.69;;;31.13;41.18
59443;BME280;45247;47.466;19.004;2023-08-24T12:49:41;99873.38;;;31.14;41.81
59443;BME280;45247;47.466;19.004;2023-08-24T12:52:09;99871.91;;;31.36;42.07
59443;BME280;45247;47.466;19.004;2023-08-24T12:54:37;99864.66;;;31.79;41.64